Time;durP1;ratioP1;P1;durP2;ratioP2;P2;SDS_P1;SDS_P2;PMS_P1;PMS_P2;Temp;Humidity;BMP_temperature;BMP_pressure;BME280_temperature;BME280_humidity;BME280_pressure;Samples;Min_cycle;Max_cycle;Signal;HPM_P1;HPM_P2
2023/05/03 00:01:44;;;;;;;3.10;1.30;;;;;;;;;;6211484;28;20289;-75
2023/05/03 00:04:53;;;;;;;4.93;1.50;;;;;;;;;;6213638;28;20297;-75
2023/05/03 00:08:01;;;;;;;4.57;1.30;;;;;;;;;;6213584;28;20589;-75
2023/05/03 00:11:08;;;;;;;1.50;1.20;;;;;;;;;;6213958;28;20317;-76
2023/05/03 00:14:15;;;;;;;3.72;1.38;;;;;;;;;;6227412;28;20297;-75
2023/05/03 00:17:20;;;;;;;2.38;1.58;;;;;;;;;;6214512;28;20296;-75
2023/05/03 00:20:26;;;;;;;1.70;1.60;;;;;;;;;;6212360;28;20326;-76
2023/05/03 00:23:33;;;;;;;2.75;1.45;;;;;;;;;;6214479;28;20281;-77
2023/05/03 00:26:39;;;;;;;2.72;1.40;;;;;;;;;;6228163;28;20293;-76
2023/05/03 00:29:44;;;;;;;6.70;1.42;;;;;;;;;;6213160;28;20297;-74
2023/05/03 00:32:50;;;;;;;1.30;1.20;;;;;;;;;;6213829;28;20503;-76
2023/05/03 00:35:55;;;;;;;1.77;1.20;;;;;;;;;;6228706;28;20558;-75
2023/05/03 00:39:02;;;;;;;1.15;1.10;;;;;;;;;;6228741;28;20593;-73
2023/05/03 00:42:08;;;;;;;1.38;1.38;;;;;;;;;;6228432;28;20289;-75
2023/05/03 00:45:14;;;;;;;2.25;1.17;;;;;;;;;;6212147;28;20581;-75
2023/05/03 00:48:19;;;;;;;1.25;1.25;;;;;;;;;;6212229;28;20289;-75
2023/05/03 00:51:24;;;;;;;1.48;1.38;;;;;;;;;;6213022;28;20297;-73
2023/05/03 00:54:32;;;;;;;2.35;1.45;;;;;;;;;;6211586;28;20293;-76
2023/05/03 00:57:37;;;;;;;2.53;1.55;;;;;;;;;;6211933;28;20312;-74
2023/05/03 01:00:42;;;;;;;2.28;1.30;;;;;;;;;;6212760;28;20297;-75
2023/05/03 01:03:49;;;;;;;4.10;1.40;;;;;;;;;;6227460;28;20306;-75
2023/05/03 01:07:02;;;;;;;1.50;1.30;;;;;;;;;;6211801;28;20293;-76
2023/05/03 01:10:21;;;;;;;4.35;1.50;;;;;;;;;;6212715;28;20304;-75
2023/05/03 01:13:48;;;;;;;4.97;1.60;;;;;;;;;;6176883;28;20281;-76
2023/05/03 01:17:01;;;;;;;3.65;1.50;;;;;;;;;;6188987;28;20314;-76
2023/05/03 01:20:10;;;;;;;1.25;1.25;;;;;;;;;;6187274;28;20302;-76
2023/05/03 01:23:22;;;;;;;3.92;1.27;;;;;;;;;;6188557;28;20310;-75
2023/05/03 01:26:29;;;;;;;3.08;1.20;;;;;;;;;;6219242;28;20598;-75
2023/05/03 01:29:35;;;;;;;1.48;1.30;;;;;;;;;;6202443;28;20298;-76
2023/05/03 01:32:50;;;;;;;1.23;1.20;;;;;;;;;;6188392;28;20297;-76
2023/05/03 01:35:59;;;;;;;1.38;1.38;;;;;;;;;;6203202;28;20290;-75
2023/05/03 01:39:11;;;;;;;2.35;1.33;;;;;;;;;;6186240;28;20289;-75
2023/05/03 01:42:18;;;;;;;1.20;1.20;;;;;;;;;;6188550;28;20293;-75
2023/05/03 01:45:29;;;;;;;1.40;1.13;;;;;;;;;;6187721;28;20622;-75
2023/05/03 01:48:34;;;;;;;1.50;1.50;;;;;;;;;;6201905;28;20489;-75
2023/05/03 01:51:40;;;;;;;19.17;1.35;;;;;;;;;;6219013;28;20301;-74
2023/05/03 01:54:46;;;;;;;1.25;1.20;;;;;;;;;;6208289;28;20298;-75
2023/05/03 01:57:52;;;;;;;1.38;1.27;;;;;;;;;;6211990;28;20296;-76
2023/05/03 02:00:58;;;;;;;1.38;1.25;;;;;;;;;;6209990;28;20601;-74
2023/05/03 02:04:03;;;;;;;1.20;1.08;;;;;;;;;;6211137;28;20469;-77
2023/05/03 02:07:09;;;;;;;1.58;1.10;;;;;;;;;;6211325;28;20308;-75
2023/05/03 02:10:15;;;;;;;2.00;1.10;;;;;;;;;;6209985;28;20486;-76
2023/05/03 02:13:21;;;;;;;1.10;1.10;;;;;;;;;;6209842;28;20473;-75
2023/05/03 02:16:27;;;;;;;1.30;1.23;;;;;;;;;;6225338;28;20330;-74
2023/05/03 02:19:33;;;;;;;1.20;1.20;;;;;;;;;;6226248;28;20297;-75
2023/05/03 02:22:39;;;;;;;1.13;1.13;;;;;;;;;;6210551;28;20265;-77
2023/05/03 02:25:44;;;;;;;1.25;1.05;;;;;;;;;;6210117;28;20293;-76
2023/05/03 02:28:51;;;;;;;0.93;0.90;;;;;;;;;;6209708;28;20342;-74
2023/05/03 02:31:57;;;;;;;1.48;1.08;;;;;;;;;;6210420;28;20292;-75
2023/05/03 02:35:02;;;;;;;1.33;1.33;;;;;;;;;;6209997;28;20285;-75
2023/05/03 02:38:10;;;;;;;0.90;0.90;;;;;;;;;;6211853;28;20455;-75
2023/05/03 02:41:20;;;;;;;2.45;1.30;;;;;;;;;;6203133;28;20316;-75
2023/05/03 02:44:27;;;;;;;1.20;1.20;;;;;;;;;;6226694;28;20297;-75
2023/05/03 02:47:43;;;;;;;1.05;1.05;;;;;;;;;;6216479;28;20311;-75
2023/05/03 02:50:48;;;;;;;1.27;1.27;;;;;;;;;;6215845;28;20304;-75
2023/05/03 02:53:54;;;;;;;1.10;1.10;;;;;;;;;;6222506;28;20301;-74
2023/05/03 02:57:00;;;;;;;2.25;1.40;;;;;;;;;;6223575;28;20603;-76
2023/05/03 03:00:10;;;;;;;1.40;1.40;;;;;;;;;;6191407;28;20371;-75
2023/05/03 03:03:16;;;;;;;1.10;1.10;;;;;;;;;;6214043;28;20580;-75
2023/05/03 03:06:21;;;;;;;3.53;1.20;;;;;;;;;;6229994;28;20292;-74
2023/05/03 03:09:27;;;;;;;3.37;1.10;;;;;;;;;;6215420;28;20312;-75
2023/05/03 03:12:33;;;;;;;1.27;1.00;;;;;;;;;;6214679;28;20293;-76
2023/05/03 03:15:40;;;;;;;1.10;1.10;;;;;;;;;;6214123;28;20289;-75
2023/05/03 03:18:46;;;;;;;0.95;0.95;;;;;;;;;;6229795;28;20309;-76
2023/05/03 03:21:54;;;;;;;1.30;1.23;;;;;;;;;;6229922;28;20296;-75
2023/05/03 03:25:01;;;;;;;1.20;1.20;;;;;;;;;;6229880;28;20293;-75
2023/05/03 03:28:06;;;;;;;1.10;1.10;;;;;;;;;;6214906;28;20588;-73
2023/05/03 03:31:14;;;;;;;1.10;1.10;;;;;;;;;;6215168;28;20503;-75
2023/05/03 03:34:20;;;;;;;2.60;1.20;;;;;;;;;;6213817;28;20301;-73
2023/05/03 03:37:26;;;;;;;1.20;1.20;;;;;;;;;;6213144;28;20289;-75
2023/05/03 03:40:31;;;;;;;1.95;1.00;;;;;;;;;;6214665;28;20297;-75
2023/05/03 03:43:39;;;;;;;1.30;1.30;;;;;;;;;;6214468;28;20475;-74
2023/05/03 03:46:51;;;;;;;1.23;1.23;;;;;;;;;;6214162;28;20289;-75
2023/05/03 03:49:56;;;;;;;2.00;1.38;;;;;;;;;;6214912;28;20605;-74
2023/05/03 03:53:02;;;;;;;1.13;1.13;;;;;;;;;;6220899;28;20459;-74
2023/05/03 03:56:08;;;;;;;1.15;1.15;;;;;;;;;;6189171;28;20313;-74
2023/05/03 03:59:13;;;;;;;1.70;1.30;;;;;;;;;;6188813;28;20495;-74
2023/05/03 04:02:21;;;;;;;1.38;1.38;;;;;;;;;;6189015;28;20302;-75
2023/05/03 04:05:26;;;;;;;1.10;1.10;;;;;;;;;;6204871;28;20482;-75
2023/05/03 04:08:32;;;;;;;1.10;1.10;;;;;;;;;;6188535;28;20293;-75
2023/05/03 04:11:37;;;;;;;1.30;1.30;;;;;;;;;;6207677;28;20301;-76
2023/05/03 04:14:44;;;;;;;1.30;1.20;;;;;;;;;;6212675;28;20588;-75
2023/05/03 04:17:51;;;;;;;2.73;1.30;;;;;;;;;;6212979;28;20293;-74
2023/05/03 04:20:56;;;;;;;2.97;1.35;;;;;;;;;;6219918;28;20292;-75
2023/05/03 04:24:05;;;;;;;1.27;1.27;;;;;;;;;;6227111;28;20304;-74
2023/05/03 04:27:10;;;;;;;5.47;1.27;;;;;;;;;;6227116;28;20296;-75
2023/05/03 04:30:16;;;;;;;2.92;1.50;;;;;;;;;;6264508;28;20292;-76
2023/05/03 04:33:28;;;;;;;1.20;1.20;;;;;;;;;;6250505;28;20284;-75
2023/05/03 04:36:38;;;;;;;2.30;1.30;;;;;;;;;;6240439;28;20300;-76
2023/05/03 04:39:48;;;;;;;1.00;1.00;;;;;;;;;;6253585;28;20300;-76
2023/05/03 04:42:53;;;;;;;2.20;1.10;;;;;;;;;;6238496;28;20296;-76
2023/05/03 04:45:59;;;;;;;1.00;1.00;;;;;;;;;;6256332;28;20296;-77
2023/05/03 04:49:06;;;;;;;1.52;1.00;;;;;;;;;;6238541;28;20321;-76
2023/05/03 04:52:13;;;;;;;1.80;1.40;;;;;;;;;;6237673;28;20295;-75
2023/05/03 04:55:18;;;;;;;1.40;1.10;;;;;;;;;;6200630;28;20297;-76
2023/05/03 04:58:24;;;;;;;0.98;0.98;;;;;;;;;;6215346;28;20292;-77
2023/05/03 05:01:30;;;;;;;6.80;1.00;;;;;;;;;;6211896;28;20282;-76
2023/05/03 05:04:40;;;;;;;2.05;1.10;;;;;;;;;;6211140;28;20309;-77
2023/05/03 05:07:46;;;;;;;1.00;1.00;;;;;;;;;;6214350;28;20324;-75
2023/05/03 05:10:54;;;;;;;1.10;1.10;;;;;;;;;;6249620;28;20288;-75
2023/05/03 05:14:04;;;;;;;3.93;1.13;;;;;;;;;;6228058;28;20297;-75
2023/05/03 05:17:11;;;;;;;1.10;1.10;;;;;;;;;;6232401;28;20563;-75
2023/05/03 05:20:18;;;;;;;1.42;1.33;;;;;;;;;;6219669;28;20292;-77
2023/05/03 05:23:26;;;;;;;7.28;1.00;;;;;;;;;;6252092;28;20288;-74
2023/05/03 05:26:32;;;;;;;1.23;1.23;;;;;;;;;;6251948;28;20292;-76
2023/05/03 05:29:37;;;;;;;12.27;1.52;;;;;;;;;;6252352;28;20295;-74
2023/05/03 05:32:42;;;;;;;4.82;1.42;;;;;;;;;;6235280;28;20301;-76
2023/05/03 05:35:51;;;;;;;5.43;1.67;;;;;;;;;;6235700;28;20300;-74
2023/05/03 05:38:58;;;;;;;3.45;1.20;;;;;;;;;;6252622;28;20292;-76
2023/05/03 05:42:04;;;;;;;1.10;1.10;;;;;;;;;;6237001;28;20305;-75
2023/05/03 05:45:12;;;;;;;2.78;1.60;;;;;;;;;;6226646;28;20352;-77
2023/05/03 05:48:19;;;;;;;4.78;1.20;;;;;;;;;;6227367;28;20601;-76
2023/05/03 05:51:26;;;;;;;1.85;1.30;;;;;;;;;;6194703;28;20309;-75
2023/05/03 05:54:32;;;;;;;1.15;1.02;;;;;;;;;;6225498;28;20589;-75
2023/05/03 05:57:37;;;;;;;3.67;1.10;;;;;;;;;;6267530;28;20300;-75
2023/05/03 06:00:43;;;;;;;0.93;0.93;;;;;;;;;;6235967;28;20572;-76
2023/05/03 06:03:49;;;;;;;2.80;1.25;;;;;;;;;;6235100;28;20296;-76
2023/05/03 06:06:56;;;;;;;3.58;1.30;;;;;;;;;;6267487;28;20296;-75
2023/05/03 06:10:02;;;;;;;1.73;1.00;;;;;;;;;;6251811;28;20300;-75
2023/05/03 06:13:10;;;;;;;1.02;1.00;;;;;;;;;;6250651;28;20308;-76
2023/05/03 06:16:17;;;;;;;5.13;1.17;;;;;;;;;;6250548;28;20480;-75
2023/05/03 06:19:23;;;;;;;0.88;0.88;;;;;;;;;;6217253;28;20292;-74
2023/05/03 06:22:30;;;;;;;4.13;1.10;;;;;;;;;;6193524;28;20292;-75
2023/05/03 06:25:36;;;;;;;6.03;1.40;;;;;;;;;;6225704;28;20308;-75
2023/05/03 06:28:41;;;;;;;2.75;1.10;;;;;;;;;;6211080;28;20433;-74
2023/05/03 06:31:47;;;;;;;8.30;1.60;;;;;;;;;;6193946;28;20466;-75
2023/05/03 06:34:52;;;;;;;5.32;1.30;;;;;;;;;;6227039;28;20296;-76
2023/05/03 06:38:02;;;;;;;1.77;1.00;;;;;;;;;;6193795;28;20289;-74
2023/05/03 06:41:07;;;;;;;1.40;1.30;;;;;;;;;;6193800;28;20288;-74
2023/05/03 06:44:13;;;;;;;6.90;1.60;;;;;;;;;;6211539;28;20308;-76
2023/05/03 06:47:20;;;;;;;4.68;1.40;;;;;;;;;;6193461;28;20296;-75
2023/05/03 06:50:25;;;;;;;6.63;1.00;;;;;;;;;;6225891;28;20428;-76
2023/05/03 06:53:32;;;;;;;1.50;1.02;;;;;;;;;;6220625;28;20295;-76
2023/05/03 06:56:37;;;;;;;3.33;1.63;;;;;;;;;;6233284;28;20303;-76
2023/05/03 06:59:42;;;;;;;3.92;1.30;;;;;;;;;;6235823;28;20300;-75
2023/05/03 07:02:48;;;;;;;17.90;2.45;;;;;;;;;;6234885;28;20312;-75
2023/05/03 07:05:53;;;;;;;7.60;2.03;;;;;;;;;;6235032;28;20292;-76
2023/05/03 07:09:00;;;;;;;3.55;1.40;;;;;;;;;;6235500;28;20296;-75
2023/05/03 07:12:05;;;;;;;6.90;1.38;;;;;;;;;;6235017;28;20296;-75
2023/05/03 07:15:12;;;;;;;7.30;1.45;;;;;;;;;;6235321;28;20296;-75
2023/05/03 07:18:17;;;;;;;5.03;1.13;;;;;;;;;;6210739;28;20468;-76
2023/05/03 07:21:23;;;;;;;18.08;1.80;;;;;;;;;;6210312;28;20349;-75
2023/05/03 07:24:29;;;;;;;2.00;1.55;;;;;;;;;;6211769;28;20292;-75
2023/05/03 07:27:34;;;;;;;17.00;1.35;;;;;;;;;;6210609;28;20301;-74
2023/05/03 07:30:39;;;;;;;5.15;1.20;;;;;;;;;;6212397;28;20554;-76
2023/05/03 07:33:45;;;;;;;12.43;1.25;;;;;;;;;;6215177;28;20503;-75
2023/05/03 07:36:50;;;;;;;5.45;1.02;;;;;;;;;;6197896;28;20292;-75
2023/05/03 07:39:57;;;;;;;10.48;1.70;;;;;;;;;;6215208;28;20296;-74
2023/05/03 07:43:02;;;;;;;4.90;1.30;;;;;;;;;;6197444;28;20313;-75
2023/05/03 07:46:09;;;;;;;3.35;1.05;;;;;;;;;;6214800;28;20298;-76
2023/05/03 07:49:15;;;;;;;14.43;1.73;;;;;;;;;;6197717;28;20301;-76
2023/05/03 07:52:20;;;;;;;13.18;1.45;;;;;;;;;;6229478;28;20305;-76
2023/05/03 07:55:28;;;;;;;1.27;1.13;;;;;;;;;;6225010;28;20561;-75
2023/05/03 07:58:33;;;;;;;2.03;1.08;;;;;;;;;;6191446;28;20277;-76
2023/05/03 08:01:44;;;;;;;3.63;1.00;;;;;;;;;;6190396;28;20314;-75
2023/05/03 08:04:49;;;;;;;4.45;0.90;;;;;;;;;;6190483;28;20297;-76
2023/05/03 08:07:55;;;;;;;5.68;1.10;;;;;;;;;;6189810;28;20301;-75
2023/05/03 08:11:02;;;;;;;4.38;1.00;;;;;;;;;;6190228;28;20293;-75
2023/05/03 08:14:07;;;;;;;15.70;2.80;;;;;;;;;;6190546;28;20293;-76
2023/05/03 08:17:12;;;;;;;3.05;1.10;;;;;;;;;;6204103;28;20331;-75
2023/05/03 08:20:18;;;;;;;4.80;1.00;;;;;;;;;;6237993;28;20292;-76
2023/05/03 08:23:24;;;;;;;5.80;1.05;;;;;;;;;;6238601;28;20291;-75
2023/05/03 08:26:31;;;;;;;5.75;1.25;;;;;;;;;;6237940;28;20292;-74
2023/05/03 08:29:37;;;;;;;2.58;1.05;;;;;;;;;;6238509;28;20288;-76
2023/05/03 08:32:42;;;;;;;8.00;1.52;;;;;;;;;;6237722;28;20308;-76
2023/05/03 08:35:47;;;;;;;1.00;1.00;;;;;;;;;;6237722;28;20296;-76
2023/05/03 08:38:53;;;;;;;5.15;1.30;;;;;;;;;;6237943;28;20300;-75
2023/05/03 08:42:00;;;;;;;4.68;1.02;;;;;;;;;;6236380;28;20597;-75
2023/05/03 08:45:07;;;;;;;8.82;1.50;;;;;;;;;;6237967;28;20296;-75
2023/05/03 08:48:14;;;;;;;5.57;1.27;;;;;;;;;;6213436;28;20296;-74
2023/05/03 08:51:20;;;;;;;3.47;1.23;;;;;;;;;;6212319;28;20465;-75
2023/05/03 08:54:26;;;;;;;2.40;1.13;;;;;;;;;;6214041;28;20302;-74
2023/05/03 08:57:35;;;;;;;9.00;1.00;;;;;;;;;;6214326;28;20313;-76
2023/05/03 09:00:43;;;;;;;10.20;1.40;;;;;;;;;;6213268;28;20577;-75
2023/05/03 09:03:51;;;;;;;3.65;1.10;;;;;;;;;;6213558;28;20313;-75
2023/05/03 09:07:08;;;;;;;4.20;1.00;;;;;;;;;;6213139;28;20305;-74
2023/05/03 09:10:23;;;;;;;3.95;1.33;;;;;;;;;;6213166;28;20482;-75
2023/05/03 09:13:33;;;;;;;5.53;0.88;;;;;;;;;;6212236;28;20274;-75
2023/05/03 09:16:39;;;;;;;1.70;1.00;;;;;;;;;;6227434;28;20350;-75
2023/05/03 09:19:51;;;;;;;7.40;0.90;;;;;;;;;;6213117;28;20578;-76
2023/05/03 09:22:56;;;;;;;9.02;1.30;;;;;;;;;;6212206;28;20289;-75
2023/05/03 09:26:01;;;;;;;1.08;0.90;;;;;;;;;;6211881;28;20565;-76
2023/05/03 09:29:08;;;;;;;5.65;1.48;;;;;;;;;;6212577;28;20301;-76
2023/05/03 09:32:14;;;;;;;5.95;1.02;;;;;;;;;;6212151;28;20349;-75
2023/05/03 09:35:19;;;;;;;3.60;1.15;;;;;;;;;;6211828;28;20578;-76
2023/05/03 09:38:28;;;;;;;5.68;1.60;;;;;;;;;;6212206;28;20289;-74
2023/05/03 09:41:34;;;;;;;1.75;1.10;;;;;;;;;;6211536;28;20297;-75
2023/05/03 09:44:47;;;;;;;3.63;2.15;;;;;;;;;;6212611;28;20288;-75
2023/05/03 09:47:54;;;;;;;1.98;0.85;;;;;;;;;;6212017;28;20297;-75
2023/05/03 09:51:00;;;;;;;1.48;1.10;;;;;;;;;;6211714;28;20410;-75
2023/05/03 09:54:05;;;;;;;3.05;0.98;;;;;;;;;;6210814;28;20293;-74
2023/05/03 09:57:13;;;;;;;1.35;1.20;;;;;;;;;;6212064;28;20292;-75
2023/05/03 10:00:20;;;;;;;1.48;1.10;;;;;;;;;;6211330;28;20300;-76
2023/05/03 10:03:32;;;;;;;10.82;1.00;;;;;;;;;;6212475;28;20305;-75
2023/05/03 10:06:41;;;;;;;2.40;1.30;;;;;;;;;;6211398;28;20475;-75
2023/05/03 10:09:48;;;;;;;1.17;0.98;;;;;;;;;;6211288;28;20297;-76
2023/05/03 10:12:53;;;;;;;0.80;0.80;;;;;;;;;;6211347;28;20336;-75
2023/05/03 10:16:05;;;;;;;15.52;1.58;;;;;;;;;;6211744;28;20300;-75
2023/05/03 10:19:14;;;;;;;3.80;1.10;;;;;;;;;;6212367;28;20294;-75
2023/05/03 10:22:20;;;;;;;3.15;0.90;;;;;;;;;;6212231;28;20300;-74
2023/05/03 10:25:25;;;;;;;2.97;1.02;;;;;;;;;;6212675;28;20269;-76
2023/05/03 10:28:30;;;;;;;1.33;1.10;;;;;;;;;;6214678;28;20276;-76
2023/05/03 10:31:47;;;;;;;2.08;1.20;;;;;;;;;;6213677;28;20305;-74
2023/05/03 10:34:58;;;;;;;7.47;1.20;;;;;;;;;;6213261;28;20305;-76
2023/05/03 10:38:14;;;;;;;1.13;1.02;;;;;;;;;;6211942;28;20293;-75
2023/05/03 10:41:26;;;;;;;1.95;0.90;;;;;;;;;;6213947;28;20428;-76
2023/05/03 10:44:38;;;;;;;1.00;0.80;;;;;;;;;;6214512;28;20281;-75
2023/05/03 10:47:45;;;;;;;2.45;0.88;;;;;;;;;;6213822;28;20285;-74
2023/05/03 10:50:51;;;;;;;1.05;1.05;;;;;;;;;;6213844;28;20459;-75
2023/05/03 10:53:59;;;;;;;2.03;1.10;;;;;;;;;;6214057;28;20296;-75
2023/05/03 10:57:05;;;;;;;1.63;1.27;;;;;;;;;;6211919;28;20317;-75
2023/05/03 11:00:15;;;;;;;3.13;1.05;;;;;;;;;;6211002;28;20293;-75
2023/05/03 11:03:35;;;;;;;1.00;0.90;;;;;;;;;;6210752;28;20304;-75
2023/05/03 11:06:41;;;;;;;2.50;1.05;;;;;;;;;;6213267;28;20475;-75
2023/05/03 11:09:46;;;;;;;5.60;1.17;;;;;;;;;;6215804;28;20293;-75
2023/05/03 11:12:51;;;;;;;2.95;1.30;;;;;;;;;;6215257;28;20344;-75
2023/05/03 11:15:57;;;;;;;10.45;1.40;;;;;;;;;;6215254;28;20308;-75
2023/05/03 11:19:04;;;;;;;3.03;1.20;;;;;;;;;;6215612;28;20289;-75
2023/05/03 11:22:11;;;;;;;2.15;1.13;;;;;;;;;;6215181;28;20598;-76
2023/05/03 11:25:17;;;;;;;2.85;1.08;;;;;;;;;;6214697;28;20305;-75
2023/05/03 11:28:22;;;;;;;14.75;1.52;;;;;;;;;;6214459;28;20610;-75
2023/05/03 11:31:27;;;;;;;1.85;1.10;;;;;;;;;;6214091;28;20583;-75
2023/05/03 11:34:34;;;;;;;5.00;2.03;;;;;;;;;;6215111;28;20289;-76
2023/05/03 11:37:39;;;;;;;2.08;1.13;;;;;;;;;;6214529;28;20297;-76
2023/05/03 11:40:44;;;;;;;2.40;1.05;;;;;;;;;;6213471;28;20292;-74
2023/05/03 11:43:50;;;;;;;1.92;1.10;;;;;;;;;;6214703;28;20293;-76
2023/05/03 11:47:08;;;;;;;1.00;0.85;;;;;;;;;;6214412;28;20289;-75
2023/05/03 11:50:15;;;;;;;5.22;1.10;;;;;;;;;;6215481;28;20290;-75
2023/05/03 11:53:21;;;;;;;4.28;1.40;;;;;;;;;;6214762;28;20292;-75
2023/05/03 11:56:26;;;;;;;7.78;0.90;;;;;;;;;;6214487;28;20289;-76
2023/05/03 11:59:38;;;;;;;1.90;1.00;;;;;;;;;;6214603;28;20289;-75
2023/05/03 12:02:44;;;;;;;6.32;1.27;;;;;;;;;;6214519;28;20305;-75
2023/05/03 12:05:52;;;;;;;3.00;1.02;;;;;;;;;;6214195;28;20302;-75
2023/05/03 12:08:58;;;;;;;8.32;1.15;;;;;;;;;;6215070;28;20297;-76
2023/05/03 12:12:04;;;;;;;0.98;0.95;;;;;;;;;;6214326;28;20316;-74
2023/05/03 12:15:13;;;;;;;1.30;1.17;;;;;;;;;;6228886;28;20333;-75
2023/05/03 12:18:20;;;;;;;3.20;1.20;;;;;;;;;;6214272;28;20573;-75
2023/05/03 12:21:44;;;;;;;1.27;0.80;;;;;;;;;;6213545;28;20296;-75
2023/05/03 12:25:02;;;;;;;1.17;0.70;;;;;;;;;;6214181;28;20297;-76
2023/05/03 12:28:09;;;;;;;8.60;1.30;;;;;;;;;;6213676;28;20301;-75
2023/05/03 12:31:17;;;;;;;2.88;0.98;;;;;;;;;;6213672;28;20320;-77
2023/05/03 12:34:26;;;;;;;2.13;1.08;;;;;;;;;;6211380;28;20376;-76
2023/05/03 12:37:40;;;;;;;1.17;1.00;;;;;;;;;;6213283;28;20293;-75
2023/05/03 12:40:47;;;;;;;0.80;0.80;;;;;;;;;;6212241;28;20293;-75
2023/05/03 12:43:53;;;;;;;0.70;0.70;;;;;;;;;;6214057;28;20297;-76
2023/05/03 12:46:58;;;;;;;2.45;0.93;;;;;;;;;;6213731;28;20289;-81
2023/05/03 12:50:06;;;;;;;21.83;1.67;;;;;;;;;;6213439;28;20284;-75
2023/05/03 12:53:17;;;;;;;4.43;1.45;;;;;;;;;;6203291;28;20314;-77
2023/05/03 12:56:23;;;;;;;3.63;1.00;;;;;;;;;;6189087;28;20294;-75
2023/05/03 12:59:30;;;;;;;8.43;0.80;;;;;;;;;;6189606;28;20609;-74
2023/05/03 13:02:41;;;;;;;0.70;0.70;;;;;;;;;;6188598;28;20305;-73
2023/05/03 13:05:50;;;;;;;1.95;1.13;;;;;;;;;;6188805;28;20298;-74
2023/05/03 13:08:57;;;;;;;3.58;1.10;;;;;;;;;;6189205;28;20575;-75
2023/05/03 13:12:07;;;;;;;0.88;0.88;;;;;;;;;;6219967;28;20301;-78
2023/05/03 13:15:13;;;;;;;2.35;0.95;;;;;;;;;;6188350;28;20297;-75
2023/05/03 13:18:18;;;;;;;2.50;1.20;;;;;;;;;;6236628;28;20292;-77
2023/05/03 13:21:23;;;;;;;9.32;1.17;;;;;;;;;;6212471;28;20301;-76
2023/05/03 13:24:30;;;;;;;7.13;2.35;;;;;;;;;;6214495;28;20297;-76
2023/05/03 13:27:35;;;;;;;1.05;0.98;;;;;;;;;;6212604;28;20514;-74
2023/05/03 13:30:40;;;;;;;0.90;0.80;;;;;;;;;;6212955;28;20398;-75
2023/05/03 13:33:45;;;;;;;0.90;0.80;;;;;;;;;;6213457;28;20296;-74
2023/05/03 13:36:50;;;;;;;0.80;0.80;;;;;;;;;;6212612;28;20304;-75
2023/05/03 13:39:57;;;;;;;1.33;0.98;;;;;;;;;;6212802;28;20292;-76
2023/05/03 13:43:02;;;;;;;1.30;0.95;;;;;;;;;;6212548;28;20289;-74
2023/05/03 13:46:07;;;;;;;0.98;0.80;;;;;;;;;;6212228;28;20289;-75
2023/05/03 13:49:13;;;;;;;1.85;1.00;;;;;;;;;;6212987;28;20298;-75
2023/05/03 13:52:18;;;;;;;3.92;1.00;;;;;;;;;;6212481;28;20301;-74
2023/05/03 13:55:26;;;;;;;0.88;0.88;;;;;;;;;;6226101;28;20292;-74
2023/05/03 13:58:31;;;;;;;2.25;1.13;;;;;;;;;;6212175;28;20273;-74
2023/05/03 14:01:37;;;;;;;2.72;1.00;;;;;;;;;;6211322;28;20411;-76
2023/05/03 14:04:42;;;;;;;5.50;1.20;;;;;;;;;;6211800;28;20296;-74
2023/05/03 14:07:48;;;;;;;1.00;0.90;;;;;;;;;;6211515;28;20308;-74
2023/05/03 14:10:54;;;;;;;2.30;1.10;;;;;;;;;;6209722;28;20293;-75
2023/05/03 14:14:00;;;;;;;2.13;0.80;;;;;;;;;;6212211;28;20305;-74
2023/05/03 14:17:06;;;;;;;18.90;1.40;;;;;;;;;;6211193;28;20305;-75
2023/05/03 14:20:16;;;;;;;19.45;1.70;;;;;;;;;;6210022;28;20288;-75
2023/05/03 14:23:23;;;;;;;6.70;1.20;;;;;;;;;;6211492;28;20293;-75
2023/05/03 14:26:32;;;;;;;1.00;1.00;;;;;;;;;;6210745;28;20293;-76
2023/05/03 14:29:37;;;;;;;0.80;0.80;;;;;;;;;;6211034;28;20292;-74
2023/05/03 14:32:42;;;;;;;0.88;0.88;;;;;;;;;;6210772;28;20297;-76
2023/05/03 14:35:47;;;;;;;3.85;0.90;;;;;;;;;;6225435;28;20296;-75
2023/05/03 14:38:53;;;;;;;3.50;1.00;;;;;;;;;;6211010;28;20300;-75
2023/05/03 14:41:59;;;;;;;0.82;0.82;;;;;;;;;;6214962;28;20291;-75
2023/05/03 14:45:06;;;;;;;41.67;3.00;;;;;;;;;;6216165;28;20305;-75
2023/05/03 14:48:16;;;;;;;0.80;0.80;;;;;;;;;;6215515;28;20297;-75
2023/05/03 14:51:21;;;;;;;0.73;0.73;;;;;;;;;;6214873;28;20305;-74
2023/05/03 14:54:26;;;;;;;1.20;1.10;;;;;;;;;;6215623;28;20485;-75
2023/05/03 14:57:33;;;;;;;1.10;1.10;;;;;;;;;;6214977;28;20486;-76
2023/05/03 15:00:39;;;;;;;1.02;1.02;;;;;;;;;;6215739;28;20356;-75
2023/05/03 15:03:44;;;;;;;1.63;1.17;;;;;;;;;;6215232;28;20305;-77
2023/05/03 15:06:50;;;;;;;2.05;0.90;;;;;;;;;;6215563;28;20305;-75
2023/05/03 15:09:55;;;;;;;1.48;1.17;;;;;;;;;;6215263;28;20484;-76
2023/05/03 15:13:02;;;;;;;0.98;0.93;;;;;;;;;;6214967;28;20294;-76
2023/05/03 15:16:10;;;;;;;4.18;1.10;;;;;;;;;;6214660;28;20373;-75
2023/05/03 15:19:15;;;;;;;1.23;1.10;;;;;;;;;;6215279;28;20317;-77
2023/05/03 15:22:20;;;;;;;2.85;1.00;;;;;;;;;;6214957;28;20545;-77
2023/05/03 15:25:25;;;;;;;2.17;0.90;;;;;;;;;;6214139;28;20281;-74
2023/05/03 15:28:32;;;;;;;4.85;1.30;;;;;;;;;;6214948;28;20273;-75
2023/05/03 15:31:38;;;;;;;1.45;1.30;;;;;;;;;;6215333;28;20289;-75
2023/05/03 15:34:43;;;;;;;9.43;1.63;;;;;;;;;;6215342;28;20297;-74
2023/05/03 15:37:48;;;;;;;5.40;1.20;;;;;;;;;;6214703;28;20296;-74
2023/05/03 15:40:53;;;;;;;2.85;1.30;;;;;;;;;;6214983;28;20290;-74
2023/05/03 15:44:03;;;;;;;1.20;1.10;;;;;;;;;;6215767;28;20293;-72
2023/05/03 15:47:10;;;;;;;1.73;1.20;;;;;;;;;;6214942;28;20300;-75
2023/05/03 15:50:16;;;;;;;1.58;1.50;;;;;;;;;;6212666;28;20289;-73
2023/05/03 15:53:21;;;;;;;0.95;0.95;;;;;;;;;;6213526;28;20293;-74
2023/05/03 15:56:27;;;;;;;1.42;1.33;;;;;;;;;;6214362;28;20296;-75
2023/05/03 15:59:34;;;;;;;1.90;1.42;;;;;;;;;;6214611;28;20296;-76
2023/05/03 16:02:40;;;;;;;1.13;1.10;;;;;;;;;;6213804;28;20301;-76
2023/05/03 16:05:46;;;;;;;1.85;1.23;;;;;;;;;;6213920;28;20526;-75
2023/05/03 16:08:51;;;;;;;7.07;1.00;;;;;;;;;;6214630;28;20308;-75
2023/05/03 16:11:58;;;;;;;1.27;1.17;;;;;;;;;;6213966;28;20442;-77
2023/05/03 16:15:05;;;;;;;1.73;1.20;;;;;;;;;;6214369;28;20301;-74
2023/05/03 16:18:15;;;;;;;2.65;0.90;;;;;;;;;;6212677;28;20516;-75
2023/05/03 16:21:20;;;;;;;1.60;1.10;;;;;;;;;;6212522;28;20296;-75
2023/05/03 16:24:27;;;;;;;1.33;1.20;;;;;;;;;;6214410;28;20292;-75
2023/05/03 16:27:32;;;;;;;1.30;1.30;;;;;;;;;;6212603;28;20304;-75
2023/05/03 16:30:38;;;;;;;1.70;1.60;;;;;;;;;;6212539;28;20285;-74
2023/05/03 16:33:44;;;;;;;2.88;1.80;;;;;;;;;;6213609;28;20483;-75
2023/05/03 16:36:49;;;;;;;0.90;0.90;;;;;;;;;;6213736;28;20309;-75
2023/05/03 16:39:54;;;;;;;1.77;1.00;;;;;;;;;;6214000;28;20493;-74
2023/05/03 16:42:59;;;;;;;0.80;0.80;;;;;;;;;;6213229;28;20306;-74
2023/05/03 16:46:06;;;;;;;1.00;1.00;;;;;;;;;;6212459;28;20454;-74
2023/05/03 16:49:12;;;;;;;1.02;1.00;;;;;;;;;;6213894;28;20396;-75
2023/05/03 16:52:17;;;;;;;4.55;1.10;;;;;;;;;;6212144;28;20305;-74
2023/05/03 16:55:23;;;;;;;1.00;1.00;;;;;;;;;;6213108;28;20301;-75
2023/05/03 16:58:28;;;;;;;1.45;1.35;;;;;;;;;;6213271;28;20269;-74
2023/05/03 17:01:34;;;;;;;1.25;1.20;;;;;;;;;;6212663;28;20378;-74
2023/05/03 17:04:40;;;;;;;4.47;1.40;;;;;;;;;;6212692;28;20297;-75
2023/05/03 17:07:46;;;;;;;5.05;1.30;;;;;;;;;;6228287;28;20301;-74
2023/05/03 17:10:53;;;;;;;1.63;1.50;;;;;;;;;;6213014;28;20289;-75
2023/05/03 17:13:59;;;;;;;1.58;1.17;;;;;;;;;;6213407;28;20312;-74
2023/05/03 17:17:06;;;;;;;1.83;1.13;;;;;;;;;;6213120;28;20304;-75
2023/05/03 17:20:13;;;;;;;1.00;1.00;;;;;;;;;;6213469;28;20470;-76
2023/05/03 17:23:18;;;;;;;1.08;1.08;;;;;;;;;;6213624;28;20301;-74
2023/05/03 17:26:24;;;;;;;1.10;1.10;;;;;;;;;;6211515;28;20495;-75
2023/05/03 17:29:30;;;;;;;1.52;1.42;;;;;;;;;;6213465;28;20444;-76
2023/05/03 17:32:37;;;;;;;3.00;1.33;;;;;;;;;;6213105;28;20470;-74
2023/05/03 17:35:42;;;;;;;1.38;1.20;;;;;;;;;;6212438;28;20590;-75
2023/05/03 17:38:47;;;;;;;2.08;1.30;;;;;;;;;;6212786;28;20305;-75
2023/05/03 17:41:52;;;;;;;5.47;1.40;;;;;;;;;;6212812;28;20293;-74
2023/05/03 17:44:57;;;;;;;2.75;1.08;;;;;;;;;;6213095;28;20297;-73
2023/05/03 17:48:04;;;;;;;1.17;1.10;;;;;;;;;;6212146;28;20296;-74
2023/05/03 17:51:12;;;;;;;1.20;1.10;;;;;;;;;;6212380;28;20461;-73
2023/05/03 17:54:18;;;;;;;1.10;1.10;;;;;;;;;;6212755;28;20305;-73
2023/05/03 17:57:24;;;;;;;1.10;1.10;;;;;;;;;;6211831;28;20305;-72
2023/05/03 18:00:29;;;;;;;0.90;0.90;;;;;;;;;;6210819;28;20297;-74
2023/05/03 18:03:37;;;;;;;1.10;1.10;;;;;;;;;;6212068;28;20313;-75
2023/05/03 18:06:42;;;;;;;1.10;1.10;;;;;;;;;;6212136;28;20308;-76
2023/05/03 18:09:50;;;;;;;1.27;1.25;;;;;;;;;;6212342;28;20297;-73
2023/05/03 18:12:55;;;;;;;1.20;1.20;;;;;;;;;;6227354;28;20297;-76
2023/05/03 18:16:07;;;;;;;1.17;1.17;;;;;;;;;;6211591;28;20473;-77
2023/05/03 18:19:14;;;;;;;1.88;1.08;;;;;;;;;;6219191;28;20295;-74
2023/05/03 18:22:19;;;;;;;1.30;1.23;;;;;;;;;;6187971;28;20306;-74
2023/05/03 18:25:25;;;;;;;1.00;1.00;;;;;;;;;;6187586;28;20269;-76
2023/05/03 18:28:30;;;;;;;1.23;1.20;;;;;;;;;;6187648;28;20279;-74
2023/05/03 18:31:36;;;;;;;1.23;1.23;;;;;;;;;;6187289;28;20474;-75
2023/05/03 18:34:43;;;;;;;1.75;1.20;;;;;;;;;;6187883;28;20266;-76
2023/05/03 18:37:48;;;;;;;2.13;1.60;;;;;;;;;;6187155;28;20329;-75
2023/05/03 18:40:54;;;;;;;1.30;1.30;;;;;;;;;;6186965;28;20290;-76